Time;durP1;ratioP1;P1;durP2;ratioP2;P2;SDS_P1;SDS_P2;PMS_P1;PMS_P2;Temp;Humidity;BMP_temperature;BMP_pressure;BME280_temperature;BME280_humidity;BME280_pressure;Samples;Min_cycle;Max_cycle;Signal;HPM_P1;HPM_P2
2023/04/16 00:00:16;;;;;;;0.40;0.40;;;19.50;50.00;;;;;;4973646;28;20198;-69
2023/04/16 00:02:42;;;;;;;0.45;0.35;;;19.50;50.10;;;;;;4956366;28;20292;-69
2023/04/16 00:05:08;;;;;;;0.47;0.47;;;19.50;50.10;;;;;;4974826;28;20197;-69
2023/04/16 00:07:33;;;;;;;0.40;0.40;;;19.60;50.20;;;;;;4974530;28;20200;-69
2023/04/16 00:09:59;;;;;;;0.32;0.32;;;19.50;50.10;;;;;;4973502;28;20205;-70
2023/04/16 00:12:25;;;;;;;0.40;0.40;;;19.60;50.20;;;;;;4974342;28;20221;-69
2023/04/16 00:14:50;;;;;;;0.75;0.50;;;19.60;50.20;;;;;;4973541;28;20204;-70
2023/04/16 00:17:16;;;;;;;0.52;0.50;;;19.60;50.20;;;;;;4956889;28;20186;-69
2023/04/16 00:19:42;;;;;;;1.05;0.60;;;19.50;50.10;;;;;;4974441;28;20189;-70
2023/04/16 00:22:08;;;;;;;0.50;0.50;;;19.50;50.20;;;;;;4973100;28;20221;-70
2023/04/16 00:24:33;;;;;;;0.88;0.50;;;19.50;50.20;;;;;;4973374;28;20248;-70
2023/04/16 00:27:00;;;;;;;0.50;0.40;;;19.50;50.20;;;;;;4974426;28;20711;-70
2023/04/16 00:29:27;;;;;;;0.50;0.50;;;19.60;50.30;;;;;;4973019;28;20540;-70
2023/04/16 00:31:53;;;;;;;0.50;0.50;;;19.50;50.20;;;;;;4972697;28;20701;-70
2023/04/16 00:34:19;;;;;;;0.40;0.40;;;19.50;50.20;;;;;;4974273;28;20188;-69
2023/04/16 00:36:44;;;;;;;0.30;0.30;;;19.50;50.20;;;;;;4957211;28;20215;-70
2023/04/16 00:39:10;;;;;;;0.52;0.50;;;19.50;50.20;;;;;;4957166;28;20280;-69
2023/04/16 00:41:37;;;;;;;0.40;0.40;;;19.60;50.30;;;;;;4972530;28;20210;-69
2023/04/16 00:44:03;;;;;;;0.82;0.40;;;19.50;50.20;;;;;;4973024;28;20190;-70
2023/04/16 00:46:29;;;;;;;0.77;0.52;;;19.50;50.20;;;;;;4972718;28;20197;-70
2023/04/16 00:48:56;;;;;;;0.45;0.40;;;19.50;50.20;;;;;;4972780;28;20205;-69
2023/04/16 00:51:22;;;;;;;0.40;0.40;;;19.50;50.20;;;;;;4956532;28;20221;-69
2023/04/16 00:53:48;;;;;;;0.88;0.57;;;19.50;50.30;;;;;;4972301;28;20217;-69
2023/04/16 00:56:15;;;;;;;0.30;0.30;;;19.50;50.20;;;;;;4972311;28;20244;-70
2023/04/16 00:58:40;;;;;;;1.13;0.40;;;19.50;50.20;;;;;;4972609;28;20233;-70
2023/04/16 01:01:06;;;;;;;0.75;0.40;;;19.50;50.30;;;;;;4956397;28;20217;-70
2023/04/16 01:03:38;;;;;;;0.40;0.40;;;19.50;50.30;;;;;;4956669;28;20208;-71
2023/04/16 01:06:06;;;;;;;0.68;0.40;;;19.50;50.30;;;;;;4956880;28;20247;-70
2023/04/16 01:08:32;;;;;;;0.60;0.50;;;19.50;50.30;;;;;;4973380;28;20240;-70
2023/04/16 01:10:58;;;;;;;0.47;0.40;;;19.50;50.30;;;;;;4956452;28;20217;-70
2023/04/16 01:13:24;;;;;;;0.88;0.45;;;19.50;50.40;;;;;;4955883;28;20212;-69
2023/04/16 01:15:50;;;;;;;0.63;0.40;;;19.60;50.40;;;;;;4972311;28;20182;-70
2023/04/16 01:18:19;;;;;;;0.30;0.30;;;19.60;50.40;;;;;;4971959;28;20268;-70
2023/04/16 01:20:46;;;;;;;0.40;0.40;;;19.50;50.30;;;;;;4964302;28;20201;-70
2023/04/16 01:23:13;;;;;;;0.40;0.40;;;19.50;50.30;;;;;;4973364;28;20186;-70
2023/04/16 01:25:39;;;;;;;0.50;0.50;;;19.50;50.30;;;;;;4972375;28;20186;-70
2023/04/16 01:28:06;;;;;;;0.40;0.40;;;19.50;50.30;;;;;;4972193;28;20200;-70
2023/04/16 01:30:32;;;;;;;0.50;0.50;;;19.50;50.30;;;;;;4971896;28;20181;-70
2023/04/16 01:33:10;;;;;;;0.70;0.40;;;19.50;50.30;;;;;;4972204;28;20260;-70
2023/04/16 01:35:36;;;;;;;0.50;0.50;;;19.50;50.30;;;;;;4955976;28;20181;-71
2023/04/16 01:38:04;;;;;;;0.60;0.60;;;19.50;50.40;;;;;;4955928;28;20285;-70
2023/04/16 01:40:30;;;;;;;0.30;0.30;;;19.50;50.40;;;;;;4956144;28;20200;-69
2023/04/16 01:42:56;;;;;;;0.45;0.30;;;19.50;50.30;;;;;;4971740;28;20189;-70
2023/04/16 01:45:22;;;;;;;0.30;0.30;;;19.60;50.40;;;;;;4955872;28;20185;-70
2023/04/16 01:47:50;;;;;;;0.40;0.40;;;19.60;50.40;;;;;;4971929;28;20190;-69
2023/04/16 01:50:16;;;;;;;1.77;0.50;;;19.50;50.40;;;;;;4972161;28;20294;-70
2023/04/16 01:52:42;;;;;;;0.60;0.50;;;19.60;50.40;;;;;;4955390;28;20213;-70
2023/04/16 01:55:09;;;;;;;0.30;0.30;;;19.50;50.40;;;;;;4971734;28;20196;-70
2023/04/16 01:57:35;;;;;;;0.40;0.40;;;19.50;50.40;;;;;;4956042;28;20664;-70
2023/04/16 02:00:03;;;;;;;0.50;0.50;;;19.50;50.40;;;;;;4971888;28;20540;-70
2023/04/16 02:02:31;;;;;;;0.32;0.32;;;19.60;50.50;;;;;;4971794;28;20744;-70
2023/04/16 02:04:57;;;;;;;0.50;0.45;;;19.50;50.40;;;;;;4971632;28;20189;-70
2023/04/16 02:07:24;;;;;;;0.35;0.30;;;19.60;50.50;;;;;;4955517;28;20181;-69
2023/04/16 02:09:50;;;;;;;0.55;0.30;;;19.60;50.50;;;;;;4974224;28;20221;-69
2023/04/16 02:12:16;;;;;;;0.40;0.40;;;19.50;50.40;;;;;;4974400;28;20220;-70
2023/04/16 02:14:42;;;;;;;0.50;0.43;;;19.50;50.40;;;;;;4975336;28;20276;-69
2023/04/16 02:17:09;;;;;;;0.40;0.40;;;19.50;50.50;;;;;;4959272;28;20190;-70
2023/04/16 02:19:37;;;;;;;0.45;0.40;;;19.50;50.50;;;;;;4975693;28;20193;-70
2023/04/16 02:22:03;;;;;;;0.30;0.30;;;19.60;50.50;;;;;;4967448;28;20634;-70
2023/04/16 02:24:29;;;;;;;0.60;0.43;;;19.60;50.60;;;;;;4975450;28;20182;-71
2023/04/16 02:26:57;;;;;;;1.00;0.30;;;19.60;50.60;;;;;;4975510;28;20189;-69
2023/04/16 02:29:23;;;;;;;0.50;0.50;;;19.50;50.50;;;;;;4975299;28;20278;-70
2023/04/16 02:31:59;;;;;;;0.70;0.40;;;19.60;50.50;;;;;;4974973;28;20692;-70
2023/04/16 02:34:25;;;;;;;0.57;0.28;;;19.60;50.60;;;;;;4975455;28;20669;-70
2023/04/16 02:36:53;;;;;;;0.40;0.40;;;19.50;50.50;;;;;;4975563;28;20181;-70
2023/04/16 02:39:18;;;;;;;0.45;0.45;;;19.50;50.50;;;;;;4959185;28;20186;-70
2023/04/16 02:41:44;;;;;;;0.40;0.40;;;19.50;50.50;;;;;;4975031;28;20206;-69
2023/04/16 02:44:10;;;;;;;1.10;0.50;;;19.50;50.60;;;;;;4974971;28;20272;-70
2023/04/16 02:46:36;;;;;;;0.40;0.40;;;19.60;50.60;;;;;;4974905;28;20190;-70
2023/04/16 02:49:01;;;;;;;0.30;0.30;;;19.60;50.60;;;;;;4974934;28;20194;-70
2023/04/16 02:51:27;;;;;;;0.30;0.30;;;19.50;50.50;;;;;;4974627;28;20300;-70
2023/04/16 02:53:53;;;;;;;0.40;0.40;;;19.60;50.70;;;;;;4974521;28;20369;-70
2023/04/16 02:56:19;;;;;;;0.47;0.47;;;19.60;50.60;;;;;;4974643;28;20185;-70
2023/04/16 02:58:45;;;;;;;0.40;0.40;;;19.50;50.60;;;;;;4975094;28;20284;-70
2023/04/16 03:01:10;;;;;;;0.68;0.40;;;19.60;50.70;;;;;;4974742;28;20220;-70
2023/04/16 03:03:36;;;;;;;0.40;0.40;;;19.60;50.70;;;;;;4964696;28;20197;-70
2023/04/16 03:06:02;;;;;;;0.30;0.30;;;19.50;50.60;;;;;;4974606;28;20200;-70
2023/04/16 03:08:28;;;;;;;0.40;0.40;;;19.50;50.60;;;;;;4974820;28;20193;-69
2023/04/16 03:10:54;;;;;;;0.30;0.30;;;19.50;50.60;;;;;;4974453;28;20217;-70
2023/04/16 03:13:19;;;;;;;0.40;0.40;;;19.60;50.60;;;;;;4974581;28;20210;-70
2023/04/16 03:15:48;;;;;;;0.40;0.40;;;19.50;50.60;;;;;;4975563;28;20178;-70
2023/04/16 03:18:15;;;;;;;0.40;0.40;;;19.50;50.60;;;;;;4958167;28;20244;-70
2023/04/16 03:20:40;;;;;;;0.40;0.40;;;19.50;50.60;;;;;;4975077;28;20237;-69
2023/04/16 03:23:06;;;;;;;0.32;0.32;;;19.50;50.60;;;;;;4974471;28;20185;-70
2023/04/16 03:25:32;;;;;;;0.40;0.40;;;19.50;50.60;;;;;;4974211;28;20193;-70
2023/04/16 03:27:58;;;;;;;0.20;0.20;;;19.60;50.70;;;;;;4974538;28;20198;-70
2023/04/16 03:30:23;;;;;;;0.55;0.43;;;19.50;50.60;;;;;;4974314;28;20268;-70
2023/04/16 03:32:49;;;;;;;0.65;0.40;;;19.50;50.70;;;;;;4973734;28;20232;-70
2023/04/16 03:35:15;;;;;;;0.38;0.38;;;19.50;50.60;;;;;;4974404;28;20611;-70
2023/04/16 03:37:41;;;;;;;0.40;0.35;;;19.50;50.70;;;;;;4957890;28;20657;-69
2023/04/16 03:40:07;;;;;;;0.30;0.30;;;19.50;50.60;;;;;;4973958;28;20661;-70
2023/04/16 03:42:33;;;;;;;0.40;0.40;;;19.50;50.60;;;;;;4973952;28;20232;-70
2023/04/16 03:44:59;;;;;;;0.40;0.40;;;19.50;50.70;;;;;;4974106;28;20680;-70
2023/04/16 03:47:26;;;;;;;0.30;0.30;;;19.50;50.70;;;;;;4973936;28;20228;-70
2023/04/16 03:49:55;;;;;;;0.85;0.38;;;19.50;51.30;;;;;;4958213;28;20189;-70
2023/04/16 03:52:21;;;;;;;0.40;0.40;;;19.50;50.70;;;;;;4973416;28;20218;-70
2023/04/16 03:54:47;;;;;;;0.30;0.30;;;19.60;50.80;;;;;;4957525;28;20197;-70
2023/04/16 03:57:31;;;;;;;0.50;0.50;;;19.60;50.90;;;;;;4973679;28;20193;-71
2023/04/16 04:00:03;;;;;;;0.52;0.40;;;19.50;50.70;;;;;;4973991;28;20322;-71
2023/04/16 04:02:40;;;;;;;0.38;0.38;;;19.50;50.70;;;;;;4974465;28;20303;-70
2023/04/16 04:05:08;;;;;;;0.32;0.32;;;19.50;50.70;;;;;;4973643;28;20273;-70
2023/04/16 04:07:35;;;;;;;0.50;0.50;;;19.50;50.70;;;;;;4957776;28;20224;-70
2023/04/16 04:10:01;;;;;;;0.40;0.40;;;19.50;50.80;;;;;;4973469;28;20177;-70
2023/04/16 04:12:27;;;;;;;0.30;0.30;;;19.50;50.80;;;;;;4957045;28;20218;-70
2023/04/16 04:14:53;;;;;;;0.35;0.35;;;19.50;50.80;;;;;;4957178;28;20197;-70
2023/04/16 04:17:19;;;;;;;0.40;0.40;;;19.50;50.80;;;;;;4972949;28;20188;-70
2023/04/16 04:19:45;;;;;;;0.30;0.30;;;19.50;50.90;;;;;;4973308;28;20190;-70
2023/04/16 04:22:11;;;;;;;0.47;0.43;;;19.50;50.80;;;;;;4973054;28;20197;-70
2023/04/16 04:24:37;;;;;;;1.15;0.30;;;19.50;50.90;;;;;;4967500;28;20185;-69
2023/04/16 04:27:03;;;;;;;0.40;0.40;;;19.50;50.90;;;;;;4973017;28;20190;-70
2023/04/16 04:29:30;;;;;;;0.40;0.40;;;19.50;50.90;;;;;;4973243;28;20181;-70
2023/04/16 04:31:57;;;;;;;0.40;0.40;;;19.50;50.90;;;;;;4972233;28;20227;-69
2023/04/16 04:34:23;;;;;;;0.40;0.40;;;19.50;50.90;;;;;;4973235;28;20174;-69
2023/04/16 04:36:49;;;;;;;0.30;0.30;;;19.50;50.90;;;;;;4973206;28;20197;-70
2023/04/16 04:39:15;;;;;;;0.50;0.40;;;19.50;50.90;;;;;;4972819;28;20185;-70
2023/04/16 04:41:42;;;;;;;1.02;0.30;;;19.50;50.90;;;;;;4972407;28;20205;-70
2023/04/16 04:44:08;;;;;;;0.38;0.30;;;19.50;50.90;;;;;;4972693;28;20192;-70
2023/04/16 04:46:34;;;;;;;0.40;0.40;;;19.50;50.90;;;;;;4972642;28;20201;-70
2023/04/16 04:49:01;;;;;;;0.30;0.30;;;19.50;50.90;;;;;;4973170;28;20185;-70
2023/04/16 04:51:27;;;;;;;0.28;0.28;;;19.50;50.90;;;;;;4956506;28;20236;-70
2023/04/16 04:53:52;;;;;;;0.20;0.20;;;19.50;50.90;;;;;;4972365;28;20213;-70
2023/04/16 04:56:18;;;;;;;0.40;0.40;;;19.50;50.90;;;;;;4972480;28;20177;-70
2023/04/16 04:58:44;;;;;;;0.30;0.30;;;19.50;50.90;;;;;;4956346;28;20197;-70
2023/04/16 05:01:09;;;;;;;0.30;0.30;;;19.50;50.90;;;;;;4956472;28;20217;-70
2023/04/16 05:03:35;;;;;;;0.40;0.40;;;19.50;50.90;;;;;;4973434;28;20209;-69
2023/04/16 05:06:01;;;;;;;0.30;0.30;;;19.50;50.90;;;;;;4973663;28;20189;-70
2023/04/16 05:08:27;;;;;;;0.40;0.40;;;19.50;50.90;;;;;;4973655;28;20182;-70
2023/04/16 05:10:52;;;;;;;0.40;0.30;;;19.50;50.90;;;;;;4972602;28;20217;-70
2023/04/16 05:13:18;;;;;;;0.38;0.38;;;19.50;50.90;;;;;;4972154;28;20275;-70
2023/04/16 05:15:44;;;;;;;0.40;0.40;;;19.50;50.90;;;;;;4973888;28;20253;-70
2023/04/16 05:18:10;;;;;;;0.22;0.22;;;19.50;50.90;;;;;;4971922;28;20202;-70
2023/04/16 05:20:36;;;;;;;0.45;0.45;;;19.50;50.90;;;;;;4973328;28;20244;-70
2023/04/16 05:23:02;;;;;;;0.30;0.30;;;19.50;50.90;;;;;;4972295;28;20571;-70
2023/04/16 05:25:28;;;;;;;0.30;0.30;;;19.50;50.90;;;;;;4972229;28;20201;-70
2023/04/16 05:27:53;;;;;;;0.40;0.40;;;19.50;50.90;;;;;;4972153;28;20201;-70
2023/04/16 05:30:19;;;;;;;0.40;0.40;;;19.50;50.90;;;;;;4972338;28;20205;-70
2023/04/16 05:32:45;;;;;;;0.40;0.40;;;19.50;50.90;;;;;;4971707;28;20226;-70
2023/04/16 05:35:11;;;;;;;0.40;0.40;;;19.50;50.90;;;;;;4972556;28;20192;-70
2023/04/16 05:37:36;;;;;;;0.30;0.30;;;19.50;50.90;;;;;;4956139;28;20324;-70
2023/04/16 05:40:02;;;;;;;0.30;0.30;;;19.50;50.90;;;;;;4972104;28;20182;-70
2023/04/16 05:42:28;;;;;;;0.55;0.30;;;19.50;50.90;;;;;;4971954;28;20205;-70
2023/04/16 05:44:54;;;;;;;0.30;0.30;;;19.60;51.00;;;;;;4971999;28;20653;-69
2023/04/16 05:47:20;;;;;;;0.40;0.40;;;19.50;50.90;;;;;;4971988;28;20198;-70
2023/04/16 05:49:45;;;;;;;0.60;0.50;;;19.50;50.90;;;;;;4973038;28;20566;-70
2023/04/16 05:52:11;;;;;;;0.38;0.38;;;19.50;50.90;;;;;;4971834;28;20221;-70
2023/04/16 05:54:37;;;;;;;0.52;0.40;;;19.50;50.90;;;;;;4972050;28;20170;-70
2023/04/16 05:57:03;;;;;;;0.45;0.45;;;19.50;50.90;;;;;;4971765;28;20190;-70
2023/04/16 05:59:29;;;;;;;0.40;0.30;;;19.50;50.90;;;;;;4972148;28;20178;-70
2023/04/16 06:01:56;;;;;;;0.30;0.30;;;19.60;51.00;;;;;;4971905;28;20213;-69
2023/04/16 06:04:22;;;;;;;0.40;0.40;;;19.50;50.90;;;;;;4956009;28;20185;-70
2023/04/16 06:06:47;;;;;;;0.40;0.40;;;19.50;50.90;;;;;;4971758;28;20205;-69
2023/04/16 06:09:13;;;;;;;0.57;0.57;;;19.60;51.00;;;;;;4972926;28;20186;-70
2023/04/16 06:11:39;;;;;;;0.50;0.50;;;19.50;50.90;;;;;;4971623;28;20637;-70
2023/04/16 06:14:05;;;;;;;2.17;0.30;;;19.50;50.90;;;;;;4971612;28;20233;-70
2023/04/16 06:16:30;;;;;;;0.82;0.30;;;19.50;50.90;;;;;;4971371;28;20193;-69
2023/04/16 06:18:56;;;;;;;0.40;0.40;;;19.60;51.00;;;;;;4972870;28;20221;-70
2023/04/16 06:21:22;;;;;;;0.50;0.50;;;19.60;51.60;;;;;;4971471;28;20308;-70
2023/04/16 06:23:48;;;;;;;1.27;0.40;;;19.50;50.90;;;;;;4955659;28;20189;-70
2023/04/16 06:26:13;;;;;;;0.50;0.50;;;19.60;51.00;;;;;;4971924;28;20186;-70
2023/04/16 06:28:39;;;;;;;0.30;0.30;;;19.50;50.90;;;;;;4955415;28;20189;-70
2023/04/16 06:31:05;;;;;;;0.95;0.47;;;19.60;51.00;;;;;;4971418;28;20312;-70
2023/04/16 06:33:30;;;;;;;0.40;0.40;;;19.60;51.00;;;;;;4971743;28;20209;-70
2023/04/16 06:35:56;;;;;;;0.30;0.30;;;19.60;51.00;;;;;;4971459;28;20186;-70
2023/04/16 06:38:22;;;;;;;0.40;0.40;;;19.60;51.00;;;;;;4971437;28;20191;-70
2023/04/16 06:40:48;;;;;;;0.50;0.50;;;19.60;51.00;;;;;;4955162;28;20277;-70
2023/04/16 06:43:14;;;;;;;0.38;0.38;;;19.60;51.00;;;;;;4971447;28;20244;-70
2023/04/16 06:45:40;;;;;;;0.40;0.40;;;19.60;51.00;;;;;;4971596;28;20190;-70
2023/04/16 06:48:06;;;;;;;0.32;0.32;;;19.60;51.00;;;;;;4971559;28;20201;-70
2023/04/16 06:50:32;;;;;;;0.25;0.25;;;19.50;50.90;;;;;;4971399;28;20281;-70
2023/04/16 06:52:57;;;;;;;0.68;0.45;;;19.60;51.00;;;;;;4972275;28;20233;-70
2023/04/16 06:55:23;;;;;;;0.30;0.30;;;19.60;51.00;;;;;;4972707;28;20272;-70
2023/04/16 06:57:49;;;;;;;0.40;0.40;;;19.60;51.00;;;;;;4975074;28;20228;-70
2023/04/16 07:00:15;;;;;;;0.40;0.40;;;19.60;51.00;;;;;;4975950;28;20280;-70
2023/04/16 07:02:40;;;;;;;0.40;0.40;;;19.60;51.00;;;;;;4974365;28;20224;-71
2023/04/16 07:05:07;;;;;;;0.40;0.40;;;19.60;51.00;;;;;;4974776;28;20253;-70
2023/04/16 07:07:33;;;;;;;0.57;0.47;;;19.50;50.90;;;;;;4975710;28;20208;-70
2023/04/16 07:10:00;;;;;;;0.40;0.40;;;19.60;51.00;;;;;;4974836;28;20276;-70
2023/04/16 07:12:26;;;;;;;0.38;0.38;;;19.60;51.00;;;;;;4974357;28;20228;-70
2023/04/16 07:14:52;;;;;;;0.40;0.40;;;19.60;51.00;;;;;;4958632;28;20190;-70
2023/04/16 07:17:17;;;;;;;0.55;0.50;;;19.60;51.00;;;;;;4974110;28;20190;-70
2023/04/16 07:19:43;;;;;;;0.35;0.35;;;19.60;51.00;;;;;;4974648;28;20201;-71
2023/04/16 07:22:12;;;;;;;0.30;0.30;;;19.60;51.00;;;;;;4958438;28;20688;-70
2023/04/16 07:24:37;;;;;;;0.40;0.40;;;19.60;51.00;;;;;;4975663;28;20182;-70
2023/04/16 07:27:03;;;;;;;0.40;0.40;;;19.60;51.00;;;;;;4974299;28;20272;-70
2023/04/16 07:29:29;;;;;;;0.40;0.40;;;19.60;51.00;;;;;;4974625;28;20189;-70
2023/04/16 07:31:56;;;;;;;0.50;0.50;;;19.50;50.90;;;;;;4973981;28;20213;-71
2023/04/16 07:34:21;;;;;;;0.30;0.30;;;19.60;51.00;;;;;;4974356;28;20217;-69
2023/04/16 07:36:47;;;;;;;1.10;0.30;;;19.60;51.00;;;;;;4974364;28;20243;-70
2023/04/16 07:39:13;;;;;;;0.88;0.50;;;19.50;50.90;;;;;;4975725;28;20197;-71
2023/04/16 07:41:39;;;;;;;0.40;0.40;;;19.60;51.00;;;;;;4973891;28;20213;-70
2023/04/16 07:44:05;;;;;;;1.13;0.60;;;19.60;51.00;;;;;;4974214;28;20200;-70
2023/04/16 07:46:31;;;;;;;0.73;0.60;;;19.60;51.00;;;;;;4975606;28;20276;-70
2023/04/16 07:48:57;;;;;;;0.40;0.40;;;19.60;51.60;;;;;;4974246;28;20193;-70
2023/04/16 07:51:23;;;;;;;0.55;0.55;;;19.60;51.00;;;;;;4973643;28;20271;-71
2023/04/16 07:53:48;;;;;;;0.50;0.50;;;19.50;51.00;;;;;;4973435;28;20209;-71
2023/04/16 07:56:14;;;;;;;1.27;0.40;;;19.60;51.00;;;;;;4957825;28;20200;-71
2023/04/16 07:58:40;;;;;;;0.77;0.40;;;19.60;51.00;;;;;;4974090;28;20189;-70
2023/04/16 08:01:08;;;;;;;0.50;0.50;;;19.50;51.00;;;;;;4973580;28;20213;-70
2023/04/16 08:03:34;;;;;;;0.50;0.50;;;19.60;51.00;;;;;;4973462;28;20193;-70
2023/04/16 08:06:00;;;;;;;0.50;0.50;;;19.50;51.10;;;;;;4974023;28;20198;-71
2023/04/16 08:08:28;;;;;;;0.55;0.50;;;19.50;51.10;;;;;;4973417;28;20219;-70
2023/04/16 08:10:57;;;;;;;1.95;0.70;;;19.50;51.00;;;;;;4973374;28;20349;-71
2023/04/16 08:13:23;;;;;;;0.60;0.60;;;19.60;51.10;;;;;;4973314;28;20217;-71
2023/04/16 08:15:49;;;;;;;0.50;0.50;;;19.60;51.80;;;;;;4973476;28;20186;-70
2023/04/16 08:18:15;;;;;;;1.75;0.60;;;19.60;51.20;;;;;;4973231;28;20197;-70
2023/04/16 08:20:41;;;;;;;1.15;0.70;;;19.60;51.20;;;;;;4957143;28;20182;-70
2023/04/16 08:23:07;;;;;;;0.50;0.50;;;19.60;51.20;;;;;;4974310;28;20194;-70
2023/04/16 08:25:34;;;;;;;0.57;0.57;;;19.60;51.20;;;;;;4973598;28;20577;-70
2023/04/16 08:28:00;;;;;;;1.75;0.60;;;19.60;51.30;;;;;;4957249;28;20248;-70
2023/04/16 08:30:26;;;;;;;1.15;0.60;;;19.60;51.20;;;;;;4957369;28;20209;-71
2023/04/16 08:32:51;;;;;;;0.60;0.60;;;19.50;51.10;;;;;;4974003;28;20249;-70
2023/04/16 08:35:17;;;;;;;1.08;0.70;;;19.50;51.20;;;;;;4972824;28;20280;-70
2023/04/16 08:37:43;;;;;;;0.60;0.60;;;19.50;51.20;;;;;;4973001;28;20186;-71
2023/04/16 08:40:09;;;;;;;0.60;0.60;;;19.60;51.30;;;;;;4972778;28;20190;-70
2023/04/16 08:42:45;;;;;;;0.95;0.40;;;19.60;51.30;;;;;;4955049;28;20213;-70
2023/04/16 08:45:16;;;;;;;0.88;0.88;;;19.60;51.30;;;;;;4972226;28;20277;-69
2023/04/16 08:47:46;;;;;;;0.70;0.70;;;19.60;51.20;;;;;;4956373;28;20202;-70
2023/04/16 08:50:21;;;;;;;1.95;0.80;;;19.60;51.30;;;;;;4974192;28;20190;-70
2023/04/16 08:52:59;;;;;;;0.52;0.52;;;19.60;51.40;;;;;;4969122;28;20276;-69
2023/04/16 08:55:47;;;;;;;0.70;0.70;;;19.60;51.40;;;;;;4973893;28;20276;-70
2023/04/16 08:58:23;;;;;;;0.50;0.50;;;19.60;51.40;;;;;;4980992;28;20181;-69
2023/04/16 09:00:50;;;;;;;0.60;0.60;;;19.60;51.30;;;;;;4973551;28;20194;-69
2023/04/16 09:03:18;;;;;;;0.80;0.80;;;19.60;51.40;;;;;;4973512;28;20215;-70
2023/04/16 09:05:45;;;;;;;1.05;0.70;;;19.60;51.40;;;;;;4973735;28;20182;-70
2023/04/16 09:08:12;;;;;;;0.70;0.70;;;19.60;51.90;;;;;;4971773;28;20260;-70
2023/04/16 09:10:38;;;;;;;0.73;0.70;;;19.60;51.50;;;;;;4973236;28;20252;-70
2023/04/16 09:13:03;;;;;;;1.17;1.00;;;19.60;51.40;;;;;;4955799;28;20231;-70
2023/04/16 09:15:30;;;;;;;0.75;0.75;;;19.60;51.60;;;;;;4970248;28;20189;-70
2023/04/16 09:17:56;;;;;;;0.80;0.70;;;19.60;51.50;;;;;;4971275;28;20280;-69
2023/04/16 09:20:22;;;;;;;1.33;0.90;;;19.60;51.60;;;;;;4972422;28;20188;-70
2023/04/16 09:22:48;;;;;;;0.70;0.70;;;19.60;51.50;;;;;;4955603;28;20213;-69
2023/04/16 09:25:14;;;;;;;0.90;0.90;;;19.60;51.50;;;;;;4973675;28;20209;-70
2023/04/16 09:27:40;;;;;;;0.70;0.70;;;19.60;51.50;;;;;;4972278;28;20196;-70
2023/04/16 09:30:26;;;;;;;2.53;0.80;;;19.60;51.50;;;;;;4973283;28;20189;-70
2023/04/16 09:33:20;;;;;;;0.70;0.70;;;19.60;51.50;;;;;;4971693;28;20225;-70
2023/04/16 09:35:49;;;;;;;0.70;0.70;;;19.60;51.50;;;;;;4972059;28;20197;-71
2023/04/16 09:38:16;;;;;;;0.95;0.85;;;19.60;51.70;;;;;;4973522;28;20177;-70
2023/04/16 09:40:42;;;;;;;0.90;0.90;;;19.60;51.60;;;;;;4972311;28;20196;-69
2023/04/16 09:43:17;;;;;;;0.73;0.70;;;19.60;51.60;;;;;;4973022;28;20190;-69
2023/04/16 09:45:53;;;;;;;2.45;1.13;;;19.60;51.70;;;;;;4972032;28;20200;-70
2023/04/16 09:48:33;;;;;;;1.10;1.00;;;19.60;51.60;;;;;;4981060;28;20185;-69
2023/04/16 09:50:59;;;;;;;0.68;0.68;;;19.60;51.60;;;;;;4971722;28;20221;-70
2023/04/16 09:53:28;;;;;;;1.10;0.98;;;19.60;51.60;;;;;;4971716;28;20197;-70
2023/04/16 09:56:04;;;;;;;2.00;1.02;;;19.60;51.50;;;;;;4971705;28;20185;-70
2023/04/16 09:58:30;;;;;;;1.02;0.98;;;19.60;51.60;;;;;;4971886;28;20232;-70
2023/04/16 10:01:10;;;;;;;0.88;0.88;;;19.60;51.60;;;;;;4972764;28;20215;-70
2023/04/16 10:03:38;;;;;;;1.38;0.73;;;19.60;51.60;;;;;;4971937;28;20186;-70
2023/04/16 10:06:18;;;;;;;1.55;1.00;;;19.60;51.60;;;;;;4971511;28;20201;-70
2023/04/16 10:08:49;;;;;;;0.80;0.80;;;19.60;51.60;;;;;;4971916;28;20181;-70
2023/04/16 10:11:17;;;;;;;2.45;0.90;;;19.60;51.60;;;;;;4971715;28;20225;-70
2023/04/16 10:13:43;;;;;;;1.15;0.93;;;19.70;51.70;;;;;;4971601;28;20268;-70
2023/04/16 10:16:09;;;;;;;1.98;0.90;;;19.60;51.60;;;;;;4971596;28;20190;-70
2023/04/16 10:18:37;;;;;;;1.35;0.93;;;19.60;51.60;;;;;;4972774;28;20642;-70
2023/04/16 10:21:04;;;;;;;1.15;0.93;;;19.70;51.70;;;;;;4955387;28;20212;-70
2023/04/16 10:23:34;;;;;;;0.93;0.90;;;19.60;51.60;;;;;;4971179;28;20277;-70
2023/04/16 10:26:01;;;;;;;1.48;0.82;;;19.70;51.70;;;;;;4971606;28;20198;-70
2023/04/16 10:28:28;;;;;;;0.90;0.90;;;19.70;51.70;;;;;;4971933;28;20193;-70
2023/04/16 10:30:57;;;;;;;1.45;0.90;;;19.60;51.60;;;;;;4973289;28;20209;-70
2023/04/16 10:33:28;;;;;;;1.48;1.10;;;19.70;51.70;;;;;;4975183;28;20260;-70
2023/04/16 10:36:10;;;;;;;1.17;1.00;;;19.70;51.70;;;;;;4975385;28;20189;-70
2023/04/16 10:38:45;;;;;;;1.10;0.85;;;19.70;51.70;;;;;;4975125;28;20289;-70
2023/04/16 10:41:11;;;;;;;1.00;0.90;;;19.70;51.70;;;;;;4974960;28;20213;-70
2023/04/16 10:43:50;;;;;;;1.00;1.00;;;19.70;51.70;;;;;;4975029;28;20182;-70
2023/04/16 10:46:19;;;;;;;1.30;1.20;;;19.70;51.70;;;;;;4976245;28;20281;-69
2023/04/16 10:48:48;;;;;;;1.10;1.00;;;19.70;51.70;;;;;;4976424;28;20189;-68
2023/04/16 10:51:33;;;;;;;1.23;1.02;;;19.70;51.70;;;;;;4974897;28;20221;-69
2023/04/16 10:54:11;;;;;;;1.02;0.93;;;19.70;51.70;;;;;;4975781;28;20720;-69
2023/04/16 10:56:37;;;;;;;1.35;1.02;;;19.70;51.70;;;;;;4976216;28;20204;-70
2023/04/16 10:59:16;;;;;;;1.30;1.20;;;19.70;51.70;;;;;;4974694;28;20194;-70
2023/04/16 11:01:44;;;;;;;0.82;0.70;;;19.70;51.70;;;;;;4974738;28;20222;-69
2023/04/16 11:04:19;;;;;;;1.08;0.98;;;19.70;51.70;;;;;;4974919;28;20213;-70
2023/04/16 11:07:05;;;;;;;1.13;1.05;;;19.70;51.80;;;;;;4975002;28;20201;-69
2023/04/16 11:10:02;;;;;;;1.27;1.02;;;19.70;51.70;;;;;;4968774;28;20196;-70
2023/04/16 11:12:36;;;;;;;1.83;1.15;;;19.70;51.70;;;;;;4974381;28;20217;-69
2023/04/16 11:15:05;;;;;;;0.80;0.80;;;19.70;51.80;;;;;;4975711;28;20181;-70
2023/04/16 11:17:37;;;;;;;0.88;0.88;;;19.70;51.70;;;;;;4975763;28;20276;-69
2023/04/16 11:20:06;;;;;;;1.10;1.00;;;19.70;51.80;;;;;;4974415;28;20189;-70
2023/04/16 11:22:37;;;;;;;1.00;0.90;;;19.70;51.80;;;;;;4957933;28;20201;-69
2023/04/16 11:25:03;;;;;;;1.40;1.10;;;19.70;51.80;;;;;;4958063;28;20716;-69
2023/04/16 11:27:30;;;;;;;1.38;0.98;;;19.70;51.90;;;;;;4974299;28;20185;-70
2023/04/16 11:29:58;;;;;;;1.10;1.08;;;19.70;52.10;;;;;;4975237;28;20197;-69
2023/04/16 11:32:24;;;;;;;2.40;1.20;;;19.70;51.90;;;;;;4974313;28;20213;-69
2023/04/16 11:34:50;;;;;;;1.10;1.00;;;19.70;51.90;;;;;;4974244;28;20201;-69
2023/04/16 11:37:21;;;;;;;1.95;0.98;;;19.70;51.90;;;;;;4958207;28;20197;-69
2023/04/16 11:39:51;;;;;;;1.50;1.10;;;19.70;51.90;;;;;;4972562;28;20201;-70
2023/04/16 11:42:23;;;;;;;1.20;1.08;;;19.70;51.90;;;;;;4973915;28;20213;-69
2023/04/16 11:44:54;;;;;;;1.25;1.00;;;19.70;51.90;;;;;;4974174;28;20319;-69
2023/04/16 11:47:22;;;;;;;1.10;1.00;;;19.70;52.00;;;;;;4974007;28;20197;-68
2023/04/16 11:49:48;;;;;;;1.48;0.90;;;19.70;52.00;;;;;;4974106;28;20208;-69
2023/04/16 11:52:28;;;;;;;1.25;0.98;;;19.70;52.10;;;;;;4973506;28;20713;-69
2023/04/16 11:54:55;;;;;;;2.30;1.10;;;19.70;51.90;;;;;;4957686;28;20182;-69
2023/04/16 11:57:29;;;;;;;0.90;0.77;;;19.70;51.90;;;;;;4957617;28;20268;-69
2023/04/16 11:59:57;;;;;;;1.48;1.05;;;19.70;51.90;;;;;;4957819;28;20633;-69
2023/04/16 12:02:43;;;;;;;1.67;1.10;;;19.70;52.00;;;;;;4973859;28;20212;-70
2023/04/16 12:05:37;;;;;;;2.50;1.10;;;19.70;52.00;;;;;;4970354;28;20226;-70
2023/04/16 12:08:28;;;;;;;3.78;1.02;;;19.70;52.00;;;;;;4973657;28;20653;-69
2023/04/16 12:10:58;;;;;;;3.42;1.42;;;19.80;52.20;;;;;;4974642;28;20229;-70
2023/04/16 12:13:24;;;;;;;1.77;1.27;;;19.80;52.10;;;;;;4972896;28;20252;-70
2023/04/16 12:15:53;;;;;;;2.03;1.20;;;19.80;52.10;;;;;;4974655;28;20249;-70
2023/04/16 12:18:25;;;;;;;1.98;1.25;;;19.80;52.10;;;;;;4973349;28;20233;-70
2023/04/16 12:20:51;;;;;;;2.20;1.20;;;19.80;52.30;;;;;;4974602;28;20194;-69
2023/04/16 12:23:29;;;;;;;7.65;1.50;;;19.70;52.20;;;;;;4973062;28;20201;-69
2023/04/16 12:26:01;;;;;;;1.15;1.05;;;19.70;52.20;;;;;;4974481;28;20185;-69
2023/04/16 12:28:38;;;;;;;3.13;1.55;;;19.70;52.20;;;;;;4973383;28;20592;-70
2023/04/16 12:31:05;;;;;;;0.98;0.98;;;19.70;52.20;;;;;;4974561;28;20688;-70
2023/04/16 12:33:31;;;;;;;2.28;1.02;;;19.70;52.20;;;;;;4956856;28;20236;-69
2023/04/16 12:35:56;;;;;;;2.03;1.10;;;19.70;52.20;;;;;;4973076;28;20189;-70
2023/04/16 12:38:22;;;;;;;1.10;1.00;;;19.70;52.20;;;;;;4970214;28;20213;-70
2023/04/16 12:40:48;;;;;;;1.60;1.05;;;19.70;52.40;;;;;;4973263;28;20194;-69
2023/04/16 12:43:14;;;;;;;1.63;1.30;;;19.70;52.30;;;;;;4972620;28;20190;-69
2023/04/16 12:45:40;;;;;;;1.58;1.30;;;19.70;52.30;;;;;;4956783;28;20194;-70
2023/04/16 12:48:06;;;;;;;1.55;1.00;;;19.70;52.50;;;;;;4974391;28;20200;-70
2023/04/16 12:50:32;;;;;;;2.47;1.23;;;19.70;52.40;;;;;;4972777;28;20185;-70